createdAt,value
2023-03-26T00:00:15.895Z,58.62
2023-03-26T00:03:05.834Z,58.17
2023-03-26T00:05:36.054Z,58.24
2023-03-26T00:08:09.228Z,58.32
2023-03-26T00:10:40.892Z,58.26
2023-03-26T00:13:11.376Z,58.17
2023-03-26T00:15:42.886Z,58.43
2023-03-26T00:18:12.593Z,58.16
2023-03-26T00:20:42.532Z,58.42
2023-03-26T00:23:13.800Z,58.12
2023-03-26T00:25:43.795Z,58.11
2023-03-26T00:28:13.844Z,58.02
2023-03-26T00:30:44.068Z,58.02
2023-03-26T00:33:18.570Z,58.14
2023-03-26T00:35:57.131Z,57.45
2023-03-26T00:38:28.784Z,57.09
2023-03-26T00:41:06.877Z,56.79
2023-03-26T00:43:37.613Z,56.97
2023-03-26T00:46:07.675Z,56.99
2023-03-26T00:48:45.506Z,56.75
2023-03-26T00:51:17.549Z,57.01
2023-03-26T00:53:49.117Z,57.16
2023-03-26T00:56:20.107Z,57.75
2023-03-26T00:58:50.436Z,58.16
2023-03-26T01:01:28.739Z,58.03
2023-03-26T01:04:28.578Z,57.79
2023-03-26T01:07:03.354Z,57.94
2023-03-26T01:09:36.928Z,58.24
2023-03-26T01:12:09.754Z,58.06
2023-03-26T01:14:39.514Z,58.08
2023-03-26T01:17:09.591Z,57.94
2023-03-26T01:19:45.837Z,57.01
2023-03-26T01:22:21.190Z,57.11
2023-03-26T01:24:54.239Z,56.92
2023-03-26T01:27:36.155Z,57.13
2023-03-26T01:30:24.829Z,56.86
2023-03-26T01:33:03.813Z,56.72
2023-03-26T01:36:13.497Z,56.32
2023-03-26T01:39:04.236Z,56.44
2023-03-26T01:41:47.724Z,56.10
2023-03-26T01:44:25.214Z,55.57
2023-03-26T01:46:56.038Z,55.75
2023-03-26T01:49:28.788Z,55.97
2023-03-26T01:52:01.071Z,55.79
2023-03-26T01:54:32.368Z,55.42
2023-03-26T01:57:22.945Z,55.30
2023-03-26T02:00:12.473Z,55.56
2023-03-26T02:03:22.839Z,55.35
2023-03-26T02:06:21.917Z,55.98
2023-03-26T02:09:15.260Z,56.05
2023-03-26T02:11:47.401Z,56.34
2023-03-26T02:14:17.667Z,56.57
2023-03-26T02:16:48.317Z,56.64
2023-03-26T02:19:22.147Z,56.89
2023-03-26T02:21:51.849Z,56.73
2023-03-26T02:24:22.959Z,56.81
2023-03-26T02:26:56.479Z,56.66
2023-03-26T02:29:27.351Z,57.03
2023-03-26T02:31:57.306Z,57.05
2023-03-26T02:34:27.059Z,57.06
2023-03-26T02:36:57.628Z,57.36
2023-03-26T02:39:28.148Z,57.71
2023-03-26T02:42:00.424Z,58.06
2023-03-26T02:44:30.620Z,57.94
2023-03-26T02:47:00.356Z,58.29
2023-03-26T02:49:49.353Z,58.09
2023-03-26T02:52:40.879Z,58.24
2023-03-26T02:55:10.835Z,58.21
2023-03-26T02:57:42.908Z,58.40
2023-03-26T03:00:23.160Z,58.44
2023-03-26T03:03:17.577Z,58.38
2023-03-26T03:06:03.574Z,58.63
2023-03-26T03:08:39.576Z,58.68
2023-03-26T03:11:43.507Z,58.55
2023-03-26T03:14:13.713Z,58.73
2023-03-26T03:16:45.262Z,58.53
2023-03-26T03:19:15.384Z,58.54
2023-03-26T03:21:45.774Z,58.60
2023-03-26T03:24:18.839Z,58.87
2023-03-26T03:26:57.570Z,59.12
2023-03-26T03:29:59.416Z,59.34
2023-03-26T03:33:03.904Z,59.55
2023-03-26T03:35:36.426Z,59.84
2023-03-26T03:38:05.186Z,60.14
2023-03-26T03:40:42.146Z,60.36
2023-03-26T03:43:12.519Z,60.69
2023-03-26T03:45:51.700Z,60.76
2023-03-26T03:48:39.603Z,61.23
2023-03-26T03:51:10.054Z,60.99
2023-03-26T03:54:00.880Z,61.48
2023-03-26T03:56:49.758Z,61.90
2023-03-26T03:59:19.543Z,61.99
2023-03-26T04:01:51.217Z,61.94
2023-03-26T04:04:29.190Z,61.72
2023-03-26T04:07:04.583Z,61.50
2023-03-26T04:09:40.085Z,61.70
2023-03-26T04:12:16.756Z,61.73
2023-03-26T04:14:55.204Z,61.61
2023-03-26T04:17:25.466Z,62.07
2023-03-26T04:19:57.316Z,62.14
2023-03-26T04:22:35.494Z,62.14
2023-03-26T04:25:08.051Z,62.41
2023-03-26T04:28:06.918Z,62.10
2023-03-26T04:31:14.289Z,62.44
2023-03-26T04:33:47.374Z,62.61
2023-03-26T04:36:27.677Z,62.27
2023-03-26T04:39:05.867Z,62.19
2023-03-26T04:41:58.277Z,62.07
2023-03-26T04:44:32.252Z,61.97
2023-03-26T04:47:06.682Z,62.15
2023-03-26T04:49:43.046Z,62.07
2023-03-26T04:52:14.113Z,61.95
2023-03-26T04:55:03.451Z,61.88
2023-03-26T04:57:44.528Z,62.15
2023-03-26T05:00:22.595Z,62.54
2023-03-26T05:02:58.523Z,62.37
2023-03-26T05:05:29.995Z,62.58
2023-03-26T05:08:01.394Z,62.52
2023-03-26T05:10:31.187Z,62.47
2023-03-26T05:13:06.675Z,62.31
2023-03-26T05:15:56.136Z,62.34
2023-03-26T05:18:34.376Z,62.28
2023-03-26T05:21:04.822Z,61.93
2023-03-26T05:23:36.846Z,61.69
2023-03-26T05:26:21.320Z,62.04
2023-03-26T05:28:52.533Z,61.98
2023-03-26T05:31:43.393Z,62.49
2023-03-26T05:34:13.713Z,62.44
2023-03-26T05:36:44.407Z,62.04
2023-03-26T05:39:36.018Z,61.33
2023-03-26T05:42:29.854Z,61.12
2023-03-26T05:45:23.708Z,61.26
2023-03-26T05:47:55.176Z,61.02
2023-03-26T05:50:26.367Z,59.63
2023-03-26T05:53:00.698Z,60.07
2023-03-26T05:56:01.239Z,59.80
2023-03-26T05:58:52.126Z,59.06
2023-03-26T06:01:45.945Z,58.04
2023-03-26T06:04:35.978Z,58.16
2023-03-26T06:07:24.631Z,57.33
2023-03-26T06:10:19.001Z,57.19
2023-03-26T06:12:50.183Z,56.25
2023-03-26T06:15:20.235Z,55.00
2023-03-26T06:18:11.526Z,55.17
2023-03-26T06:20:51.525Z,54.83
2023-03-26T06:23:28.505Z,54.59
2023-03-26T06:26:34.309Z,54.15
2023-03-26T06:29:25.595Z,54.62
2023-03-26T06:32:20.487Z,54.82
2023-03-26T06:35:02.460Z,54.17
2023-03-26T06:37:31.538Z,53.76
2023-03-26T06:40:05.206Z,53.61
2023-03-26T06:43:09.373Z,52.11
2023-03-26T06:46:02.158Z,52.56
2023-03-26T06:48:42.596Z,52.41
2023-03-26T06:51:32.262Z,52.06
2023-03-26T06:54:12.500Z,51.85
2023-03-26T06:56:48.735Z,51.68
2023-03-26T06:59:38.024Z,52.09
2023-03-26T07:02:32.430Z,53.30
2023-03-26T07:05:22.709Z,52.14
2023-03-26T07:08:12.544Z,51.51
2023-03-26T07:11:04.498Z,51.76
2023-03-26T07:13:53.458Z,51.39
2023-03-26T07:16:46.774Z,51.38
2023-03-26T07:19:36.120Z,51.65
2023-03-26T07:22:06.337Z,51.84
2023-03-26T07:25:00.687Z,51.68
2023-03-26T07:28:21.220Z,51.30
2023-03-26T07:31:49.474Z,49.54
2023-03-26T07:35:02.742Z,49.25
2023-03-26T07:38:12.410Z,49.64
2023-03-26T07:41:16.645Z,49.36
2023-03-26T07:44:37.091Z,45.61
2023-03-26T07:47:37.115Z,44.15
2023-03-26T07:50:36.376Z,43.30
2023-03-26T07:53:33.165Z,42.34
2023-03-26T07:56:27.902Z,42.05
2023-03-26T07:59:36.105Z,42.40
2023-03-26T08:02:39.102Z,42.71
2023-03-26T08:05:31.642Z,43.99
2023-03-26T08:08:21.303Z,44.30
2023-03-26T08:11:37.036Z,44.32
2023-03-26T08:14:28.215Z,44.94
2023-03-26T08:17:17.591Z,42.42
2023-03-26T08:20:12.839Z,42.24
2023-03-26T08:22:46.054Z,42.06
2023-03-26T08:25:28.554Z,42.20
2023-03-26T08:28:16.117Z,41.49
2023-03-26T08:30:47.584Z,41.40
2023-03-26T08:33:19.795Z,41.41
2023-03-26T08:35:50.469Z,41.40
2023-03-26T08:38:21.608Z,39.86
2023-03-26T08:41:12.166Z,38.76
2023-03-26T08:44:19.344Z,40.07
2023-03-26T08:47:04.958Z,39.68
2023-03-26T08:50:02.124Z,37.47
2023-03-26T08:52:37.575Z,37.27
2023-03-26T08:55:36.920Z,35.92
2023-03-26T08:58:31.674Z,36.59
2023-03-26T09:01:20.187Z,34.80
2023-03-26T09:03:54.732Z,35.27
2023-03-26T09:06:50.978Z,35.38
2023-03-26T09:09:33.262Z,34.85
2023-03-26T09:12:35.577Z,34.17
2023-03-26T09:15:27.873Z,34.34
2023-03-26T09:18:13.275Z,34.85
2023-03-26T09:21:05.012Z,35.19
2023-03-26T09:24:18.070Z,35.04
2023-03-26T09:27:17.417Z,34.84
2023-03-26T09:29:58.214Z,34.81
2023-03-26T09:32:46.744Z,34.81
2023-03-26T09:35:55.213Z,33.93
2023-03-26T09:38:41.421Z,35.23
2023-03-26T09:41:22.615Z,33.13
2023-03-26T09:44:06.188Z,32.44
2023-03-26T09:47:03.010Z,32.80
2023-03-26T09:50:03.032Z,33.03
2023-03-26T09:53:01.790Z,33.47
2023-03-26T09:55:36.095Z,32.51
2023-03-26T09:58:28.148Z,32.36
2023-03-26T10:01:15.512Z,32.90
2023-03-26T10:04:07.708Z,31.86
2023-03-26T10:07:02.584Z,31.58
2023-03-26T10:09:45.891Z,30.02
2023-03-26T10:12:40.925Z,29.96
2023-03-26T10:15:32.367Z,30.44
2023-03-26T10:18:27.528Z,29.81
2023-03-26T10:21:07.811Z,28.69
2023-03-26T10:24:14.393Z,29.17
2023-03-26T10:27:10.644Z,28.80
2023-03-26T10:30:22.897Z,29.85
2023-03-26T10:33:24.948Z,28.13
2023-03-26T10:36:15.817Z,28.51
2023-03-26T10:39:36.360Z,29.48
2023-03-26T10:42:44.974Z,29.20
2023-03-26T10:46:10.258Z,28.82
2023-03-26T10:49:01.430Z,29.65
2023-03-26T10:51:57.359Z,28.94
2023-03-26T10:54:36.790Z,27.95
2023-03-26T10:57:40.611Z,28.84
2023-03-26T11:00:26.788Z,28.29
2023-03-26T11:03:22.467Z,28.88
2023-03-26T11:06:36.236Z,28.51
2023-03-26T11:09:31.354Z,28.02
2023-03-26T11:12:49.534Z,29.41
2023-03-26T11:15:59.958Z,29.20
2023-03-26T11:18:41.942Z,28.09
2023-03-26T11:21:24.216Z,27.99
2023-03-26T11:24:10.679Z,27.96
2023-03-26T11:27:15.963Z,28.71
2023-03-26T11:29:55.408Z,29.28
2023-03-26T11:32:48.797Z,29.09
2023-03-26T11:35:39.706Z,28.79
2023-03-26T11:38:40.705Z,29.15
2023-03-26T11:41:26.597Z,29.23
2023-03-26T11:44:37.145Z,28.86
2023-03-26T11:47:12.547Z,28.30
2023-03-26T11:49:46.741Z,28.37
2023-03-26T11:52:16.569Z,28.28
2023-03-26T11:54:48.875Z,28.59
2023-03-26T11:57:33.578Z,28.73
2023-03-26T12:00:18.869Z,28.51
2023-03-26T12:02:49.912Z,28.59
2023-03-26T12:05:25.417Z,28.81
2023-03-26T12:08:04.634Z,28.72
2023-03-26T12:10:43.291Z,28.73
2023-03-26T12:13:29.644Z,29.77
2023-03-26T12:16:16.251Z,30.23
2023-03-26T12:18:57.974Z,29.43
2023-03-26T12:21:27.887Z,29.40
2023-03-26T12:24:02.902Z,29.48
2023-03-26T12:26:43.145Z,30.36
2023-03-26T12:29:18.156Z,29.19
2023-03-26T12:32:03.723Z,29.83
2023-03-26T12:34:39.703Z,30.00
2023-03-26T12:37:40.141Z,29.73
2023-03-26T12:40:37.369Z,29.36
2023-03-26T12:44:46.408Z,29.96
2023-03-26T12:47:57.365Z,29.58
2023-03-26T12:49:24.168Z,29.77
2023-03-26T12:52:20.807Z,30.17
2023-03-26T12:55:14.856Z,29.74
2023-03-26T12:58:14.072Z,30.04
2023-03-26T13:01:23.647Z,29.69
2023-03-26T13:04:30.575Z,30.25
2023-03-26T13:07:08.192Z,29.40
2023-03-26T13:10:05.749Z,28.32
2023-03-26T13:12:45.516Z,28.68
2023-03-26T13:15:21.007Z,28.67
2023-03-26T13:18:04.468Z,29.20
2023-03-26T13:20:50.182Z,28.87
2023-03-26T13:24:06.429Z,28.75
2023-03-26T13:27:07.247Z,29.12
2023-03-26T13:29:59.767Z,29.56
2023-03-26T13:32:47.947Z,29.68
2023-03-26T13:35:28.229Z,30.17
2023-03-26T13:38:07.494Z,29.99
2023-03-26T13:41:07.616Z,30.76
2023-03-26T13:43:43.809Z,31.52
2023-03-26T13:46:32.337Z,31.28
2023-03-26T13:49:10.454Z,31.32
2023-03-26T13:51:59.369Z,31.42
2023-03-26T13:54:48.213Z,31.11
2023-03-26T13:57:32.281Z,30.89
2023-03-26T14:00:07.636Z,31.16
2023-03-26T14:02:44.555Z,30.75
2023-03-26T14:05:35.091Z,30.59
2023-03-26T14:08:21.174Z,31.03
2023-03-26T14:11:03.158Z,30.26
2023-03-26T14:14:06.574Z,30.42
2023-03-26T14:16:42.703Z,30.49
2023-03-26T14:19:25.508Z,30.23
2023-03-26T14:22:14.485Z,30.59
2023-03-26T14:24:44.885Z,31.04
2023-03-26T14:27:40.982Z,31.17
2023-03-26T14:30:33.421Z,31.35
2023-03-26T14:33:27.376Z,31.63
2023-03-26T14:36:07.834Z,32.07
2023-03-26T14:39:18.961Z,32.26
2023-03-26T14:41:51.544Z,32.47
2023-03-26T14:44:48.496Z,32.89
2023-03-26T14:47:24.229Z,33.58
2023-03-26T14:50:56.275Z,33.95
2023-03-26T14:53:33.908Z,34.03
2023-03-26T14:56:15.666Z,34.86
2023-03-26T14:59:22.784Z,35.59
2023-03-26T15:02:34.944Z,34.73
2023-03-26T15:05:19.988Z,34.55
2023-03-26T15:08:33.747Z,33.96
2023-03-26T15:11:21.462Z,34.85
2023-03-26T15:14:00.780Z,34.80
2023-03-26T15:17:04.484Z,35.13
2023-03-26T15:20:02.037Z,34.55
2023-03-26T15:23:02.995Z,35.22
2023-03-26T15:26:10.303Z,35.55
2023-03-26T15:29:04.113Z,36.34
2023-03-26T15:31:52.413Z,36.21
2023-03-26T15:34:44.058Z,36.63
2023-03-26T15:37:31.239Z,36.92
2023-03-26T15:40:38.456Z,37.17
2023-03-26T15:43:13.668Z,37.94
2023-03-26T15:45:50.310Z,38.01
2023-03-26T15:48:41.003Z,38.42
2023-03-26T15:51:28.635Z,38.54
2023-03-26T15:54:18.982Z,38.93
2023-03-26T15:57:03.362Z,39.41
2023-03-26T15:59:59.714Z,39.48
2023-03-26T16:02:41.921Z,40.00
2023-03-26T16:05:37.749Z,40.32
2023-03-26T16:08:26.245Z,40.72
2023-03-26T16:11:00.474Z,40.28
2023-03-26T16:13:38.526Z,40.96
2023-03-26T16:16:16.651Z,40.90
2023-03-26T16:19:22.005Z,41.45
2023-03-26T16:22:07.978Z,42.03
2023-03-26T16:24:47.155Z,41.94
2023-03-26T16:27:29.603Z,42.01
2023-03-26T16:30:10.764Z,42.50
2023-03-26T16:32:48.512Z,42.58
2023-03-26T16:35:18.899Z,42.95
2023-03-26T16:37:53.251Z,43.35
2023-03-26T16:40:33.593Z,43.28
2023-03-26T16:43:13.862Z,44.04
2023-03-26T16:46:11.652Z,44.00
2023-03-26T16:48:50.496Z,44.58
2023-03-26T16:51:28.655Z,44.90
2023-03-26T16:54:16.978Z,45.47
2023-03-26T16:57:07.689Z,45.84
2023-03-26T17:00:04.911Z,46.48
2023-03-26T17:03:00.598Z,47.07
2023-03-26T17:05:51.470Z,47.37
2023-03-26T17:08:44.338Z,47.31
2023-03-26T17:11:37.165Z,47.77
2023-03-26T17:14:30.348Z,47.76
2023-03-26T17:17:13.170Z,47.23
2023-03-26T17:20:02.498Z,47.22
2023-03-26T17:22:52.657Z,49.04
2023-03-26T17:26:06.387Z,49.54
2023-03-26T17:29:07.497Z,49.77
2023-03-26T17:32:00.495Z,50.23
2023-03-26T17:34:54.506Z,50.40
2023-03-26T17:37:23.974Z,50.98
2023-03-26T17:40:02.505Z,51.38
2023-03-26T17:42:36.127Z,51.87
2023-03-26T17:45:12.511Z,51.60
2023-03-26T17:48:02.766Z,51.53
2023-03-26T17:50:51.222Z,51.93
2023-03-26T17:53:31.723Z,51.98
2023-03-26T17:56:16.808Z,51.73
2023-03-26T17:58:50.408Z,52.07
2023-03-26T18:01:37.612Z,51.62
2023-03-26T18:04:16.139Z,52.67
2023-03-26T18:06:59.732Z,52.63
2023-03-26T18:10:03.543Z,52.71
2023-03-26T18:13:00.309Z,52.49
2023-03-26T18:15:35.136Z,53.40
2023-03-26T18:18:26.247Z,52.75
2023-03-26T18:20:59.633Z,53.17
2023-03-26T18:23:44.895Z,53.58
2023-03-26T18:26:42.967Z,53.67
2023-03-26T18:29:27.221Z,53.66
2023-03-26T18:32:00.881Z,53.62
2023-03-26T18:34:33.807Z,53.71
2023-03-26T18:37:15.182Z,53.89
2023-03-26T18:40:09.372Z,53.68
2023-03-26T18:42:41.293Z,53.97
2023-03-26T18:45:36.719Z,53.69
2023-03-26T18:48:12.089Z,53.32
2023-03-26T18:50:43.063Z,54.26
2023-03-26T18:53:25.236Z,53.83
2023-03-26T18:55:55.011Z,54.49
2023-03-26T18:58:33.868Z,54.57
2023-03-26T19:01:23.756Z,54.65
2023-03-26T19:03:55.908Z,54.82
2023-03-26T19:06:27.714Z,54.99
2023-03-26T19:08:58.696Z,55.75
2023-03-26T19:11:29.567Z,55.42
2023-03-26T19:14:17.764Z,55.50
2023-03-26T19:16:57.153Z,55.99
2023-03-26T19:19:33.035Z,55.18
2023-03-26T19:22:05.905Z,55.10
2023-03-26T19:24:37.349Z,56.19
2023-03-26T19:27:09.093Z,56.08
2023-03-26T19:29:39.658Z,56.99
2023-03-26T19:32:21.519Z,56.72
2023-03-26T19:34:53.751Z,56.91
2023-03-26T19:37:26.789Z,57.14
2023-03-26T19:40:17.936Z,57.35
2023-03-26T19:42:51.113Z,57.72
2023-03-26T19:45:23.340Z,57.14
2023-03-26T19:48:07.422Z,56.70
2023-03-26T19:50:53.261Z,57.02
2023-03-26T19:53:33.405Z,57.24
2023-03-26T19:56:13.540Z,57.59
2023-03-26T19:58:45.618Z,57.95
2023-03-26T20:01:21.271Z,58.24
2023-03-26T20:03:53.275Z,57.97
2023-03-26T20:06:33.888Z,58.57
2023-03-26T20:09:11.304Z,58.81
2023-03-26T20:11:41.874Z,58.54
2023-03-26T20:14:17.349Z,58.13
2023-03-26T20:16:46.686Z,58.63
2023-03-26T20:19:17.148Z,58.69
2023-03-26T20:21:46.979Z,58.64
2023-03-26T20:24:17.998Z,58.59
2023-03-26T20:26:48.208Z,59.06
2023-03-26T20:29:20.150Z,59.42
2023-03-26T20:31:50.493Z,58.92
2023-03-26T20:34:24.671Z,59.29
2023-03-26T20:37:01.271Z,59.63
2023-03-26T20:39:31.807Z,59.57
2023-03-26T20:42:02.080Z,59.60
2023-03-26T20:44:32.130Z,59.93
2023-03-26T20:47:02.398Z,60.07
2023-03-26T20:49:32.782Z,60.30
2023-03-26T20:52:03.063Z,60.19
2023-03-26T20:54:31.865Z,60.53
2023-03-26T20:57:02.789Z,60.59
2023-03-26T20:59:34.946Z,60.50
2023-03-26T21:02:05.077Z,60.88
2023-03-26T21:04:36.629Z,61.20
2023-03-26T21:07:17.578Z,61.12
2023-03-26T21:09:49.189Z,61.30
2023-03-26T21:12:36.042Z,61.57
2023-03-26T21:15:13.378Z,61.94
2023-03-26T21:17:55.413Z,62.15
2023-03-26T21:20:28.426Z,62.04
2023-03-26T21:23:23.067Z,62.16
2023-03-26T21:26:24.341Z,62.71
2023-03-26T21:28:54.716Z,62.84
2023-03-26T21:31:24.729Z,62.80
2023-03-26T21:33:55.678Z,62.42
2023-03-26T21:36:25.265Z,62.97
2023-03-26T21:38:55.053Z,63.02
2023-03-26T21:41:25.289Z,63.44
2023-03-26T21:43:55.141Z,63.78
2023-03-26T21:46:25.475Z,63.48
2023-03-26T21:48:55.633Z,63.65
2023-03-26T21:51:25.720Z,63.97
2023-03-26T21:53:55.718Z,63.57
2023-03-26T21:56:53.893Z,63.47
2023-03-26T21:59:31.849Z,63.13
2023-03-26T22:02:16.209Z,62.96
2023-03-26T22:04:52.724Z,63.00
2023-03-26T22:07:51.939Z,63.22
2023-03-26T22:10:21.991Z,63.61
2023-03-26T22:12:52.469Z,63.58
2023-03-26T22:15:22.278Z,63.69
2023-03-26T22:17:56.128Z,62.87
2023-03-26T22:20:28.356Z,62.85
2023-03-26T22:22:59.408Z,63.26
2023-03-26T22:25:29.223Z,63.72
2023-03-26T22:27:58.695Z,63.63
2023-03-26T22:30:28.640Z,63.77
2023-03-26T22:32:59.206Z,64.47
2023-03-26T22:35:29.275Z,64.52
2023-03-26T22:38:00.934Z,64.45
2023-03-26T22:40:31.639Z,64.45
2023-03-26T22:43:02.070Z,64.22
2023-03-26T22:45:33.003Z,64.28
2023-03-26T22:48:04.695Z,64.48
2023-03-26T22:50:35.287Z,64.79
2023-03-26T22:53:05.457Z,64.77
2023-03-26T22:55:35.727Z,64.75
2023-03-26T22:58:05.763Z,64.86
2023-03-26T23:00:36.657Z,64.69
2023-03-26T23:03:08.756Z,64.98
2023-03-26T23:05:37.332Z,65.24
2023-03-26T23:08:08.226Z,64.96
2023-03-26T23:10:42.969Z,64.92
2023-03-26T23:13:13.515Z,65.64
2023-03-26T23:15:42.063Z,65.78
2023-03-26T23:18:12.800Z,65.50
2023-03-26T23:20:53.086Z,65.43
2023-03-26T23:23:31.411Z,65.27
2023-03-26T23:26:03.705Z,64.93
2023-03-26T23:28:35.073Z,65.45
2023-03-26T23:31:07.372Z,65.67
2023-03-26T23:33:39.454Z,65.48
2023-03-26T23:36:10.483Z,65.80
2023-03-26T23:38:43.653Z,66.27
2023-03-26T23:41:16.190Z,66.36
2023-03-26T23:43:55.828Z,66.32
2023-03-26T23:46:37.271Z,66.06
2023-03-26T23:49:07.673Z,66.27
2023-03-26T23:51:38.154Z,66.50
2023-03-26T23:54:09.059Z,65.71
2023-03-26T23:56:39.194Z,66.01
2023-03-26T23:59:08.771Z,65.83
